createdAt,value
2023-02-03T00:01:14.652Z,8.72
2023-02-03T00:03:42.047Z,8.61
2023-02-03T00:06:09.920Z,8.74
2023-02-03T00:08:38.793Z,8.61
2023-02-03T00:11:06.751Z,8.62
2023-02-03T00:13:35.144Z,8.77
2023-02-03T00:16:02.675Z,8.77
2023-02-03T00:18:30.255Z,8.78
2023-02-03T00:20:57.667Z,8.72
2023-02-03T00:23:25.875Z,8.78
2023-02-03T00:25:54.292Z,8.82
2023-02-03T00:28:21.713Z,8.82
2023-02-03T00:30:49.372Z,8.81
2023-02-03T00:33:16.774Z,8.84
2023-02-03T00:35:44.155Z,8.81
2023-02-03T00:38:11.564Z,8.84
2023-02-03T00:40:38.979Z,8.85
2023-02-03T00:43:06.401Z,8.82
2023-02-03T00:45:33.847Z,8.70
2023-02-03T00:48:01.239Z,8.73
2023-02-03T00:50:28.909Z,8.75
2023-02-03T00:52:56.369Z,8.71
2023-02-03T00:55:23.855Z,8.75
2023-02-03T00:57:51.315Z,8.65
2023-02-03T01:00:19.907Z,8.79
2023-02-03T01:02:47.389Z,8.78
2023-02-03T01:05:14.863Z,8.77
2023-02-03T01:07:42.270Z,8.78
2023-02-03T01:10:09.866Z,8.74
2023-02-03T01:12:37.362Z,8.68
2023-02-03T01:15:05.036Z,8.65
2023-02-03T01:17:32.462Z,8.59
2023-02-03T01:19:59.862Z,8.55
2023-02-03T01:22:27.300Z,8.52
2023-02-03T01:24:54.756Z,8.64
2023-02-03T01:27:22.153Z,8.63
2023-02-03T01:29:49.734Z,8.61
2023-02-03T01:32:17.141Z,8.51
2023-02-03T01:34:44.532Z,8.51
2023-02-03T01:37:11.914Z,8.56
2023-02-03T01:39:39.318Z,8.54
2023-02-03T01:42:06.772Z,8.58
2023-02-03T01:44:45.207Z,8.57
2023-02-03T01:47:21.870Z,8.56
2023-02-03T01:50:00.854Z,8.64
2023-02-03T01:52:28.726Z,8.62
2023-02-03T01:54:58.054Z,8.62
2023-02-03T01:57:30.967Z,8.68
2023-02-03T02:00:00.180Z,8.70
2023-02-03T02:02:27.844Z,8.75
2023-02-03T02:04:58.421Z,8.76
2023-02-03T02:07:26.304Z,8.76
2023-02-03T02:09:53.715Z,8.69
2023-02-03T02:12:21.122Z,8.68
2023-02-03T02:14:48.903Z,8.69
2023-02-03T02:17:17.381Z,8.62
2023-02-03T02:20:01.537Z,8.68
2023-02-03T02:22:28.951Z,8.76
2023-02-03T02:25:05.427Z,8.74
2023-02-03T02:27:59.062Z,8.67
2023-02-03T02:30:26.806Z,8.67
2023-02-03T02:32:54.363Z,8.71
2023-02-03T02:35:33.416Z,8.67
2023-02-03T02:38:04.843Z,8.71
2023-02-03T02:40:35.220Z,8.78
2023-02-03T02:43:27.249Z,8.79
2023-02-03T02:46:02.559Z,8.85
2023-02-03T02:48:48.589Z,8.88
2023-02-03T02:51:16.789Z,8.88
2023-02-03T02:53:49.093Z,8.94
2023-02-03T02:56:17.857Z,8.97
2023-02-03T02:58:47.506Z,8.97
2023-02-03T03:01:15.807Z,9.07
2023-02-03T03:03:45.138Z,9.00
2023-02-03T03:06:16.471Z,8.96
2023-02-03T03:08:59.193Z,8.97
2023-02-03T03:11:29.464Z,9.00
2023-02-03T03:13:57.321Z,9.00
2023-02-03T03:16:26.724Z,9.03
2023-02-03T03:19:00.205Z,9.06
2023-02-03T03:21:30.031Z,9.00
2023-02-03T03:24:00.443Z,9.03
2023-02-03T03:26:37.135Z,9.02
2023-02-03T03:29:10.363Z,9.08
2023-02-03T03:31:38.054Z,9.15
2023-02-03T03:34:05.669Z,9.14
2023-02-03T03:36:45.510Z,9.09
2023-02-03T03:39:22.826Z,9.05
2023-02-03T03:42:04.981Z,8.94
2023-02-03T03:44:38.235Z,8.94
2023-02-03T03:47:13.783Z,8.96
2023-02-03T03:49:42.539Z,9.05
2023-02-03T03:52:11.167Z,9.05
2023-02-03T03:54:39.867Z,9.13
2023-02-03T03:57:20.066Z,9.09
2023-02-03T03:59:49.612Z,9.03
2023-02-03T04:02:19.113Z,9.05
2023-02-03T04:04:47.246Z,9.03
2023-02-03T04:07:15.161Z,9.01
2023-02-03T04:09:43.108Z,8.96
2023-02-03T04:12:17.236Z,8.95
2023-02-03T04:14:44.636Z,8.89
2023-02-03T04:17:12.069Z,8.95
2023-02-03T04:19:39.570Z,9.01
2023-02-03T04:22:07.005Z,9.12
2023-02-03T04:24:34.394Z,9.12
2023-02-03T04:27:03.198Z,9.13
2023-02-03T04:29:32.300Z,9.05
2023-02-03T04:31:59.754Z,9.02
2023-02-03T04:34:27.170Z,9.03
2023-02-03T04:36:54.591Z,9.01
2023-02-03T04:39:22.583Z,9.04
2023-02-03T04:41:49.969Z,9.10
2023-02-03T04:44:17.406Z,9.02
2023-02-03T04:46:44.794Z,9.06
2023-02-03T04:49:12.325Z,9.02
2023-02-03T04:51:39.771Z,9.08
2023-02-03T04:54:07.224Z,9.08
2023-02-03T04:56:34.634Z,9.15
2023-02-03T04:59:02.057Z,9.07
2023-02-03T05:01:29.661Z,9.13
2023-02-03T05:03:57.096Z,9.16
2023-02-03T05:06:26.239Z,9.12
2023-02-03T05:08:54.051Z,9.16
2023-02-03T05:11:22.332Z,9.13
2023-02-03T05:13:49.812Z,9.15
2023-02-03T05:16:17.271Z,9.15
2023-02-03T05:18:44.688Z,9.22
2023-02-03T05:21:12.098Z,9.12
2023-02-03T05:23:39.499Z,9.13
2023-02-03T05:26:07.009Z,9.10
2023-02-03T05:28:34.391Z,9.10
2023-02-03T05:31:02.550Z,9.21
2023-02-03T05:33:30.649Z,9.28
2023-02-03T05:35:58.385Z,9.30
2023-02-03T05:38:25.923Z,9.25
2023-02-03T05:41:11.246Z,9.23
2023-02-03T05:43:38.760Z,9.28
2023-02-03T05:46:06.831Z,9.28
2023-02-03T05:48:34.783Z,9.31
2023-02-03T05:51:02.503Z,9.27
2023-02-03T05:53:29.881Z,9.38
2023-02-03T05:55:57.287Z,9.26
2023-02-03T05:58:24.669Z,9.27
2023-02-03T06:00:52.918Z,9.36
2023-02-03T06:03:20.428Z,9.32
2023-02-03T06:05:47.866Z,9.40
2023-02-03T06:08:15.321Z,9.41
2023-02-03T06:10:42.749Z,9.41
2023-02-03T06:13:14.220Z,9.34
2023-02-03T06:15:41.733Z,9.34
2023-02-03T06:18:09.671Z,9.31
2023-02-03T06:20:37.247Z,9.29
2023-02-03T06:23:04.871Z,9.27
2023-02-03T06:25:32.724Z,9.22
2023-02-03T06:28:00.511Z,9.16
2023-02-03T06:30:28.345Z,9.20
2023-02-03T06:32:56.208Z,9.17
2023-02-03T06:35:23.681Z,9.17
2023-02-03T06:37:51.126Z,9.10
2023-02-03T06:40:18.602Z,9.27
2023-02-03T06:42:46.533Z,9.30
2023-02-03T06:45:14.309Z,9.28
2023-02-03T06:47:42.659Z,9.28
2023-02-03T06:50:11.383Z,9.24
2023-02-03T06:52:38.796Z,9.13
2023-02-03T06:55:06.526Z,9.15
2023-02-03T06:57:34.111Z,9.26
2023-02-03T07:00:01.594Z,9.16
2023-02-03T07:02:29.007Z,9.28
2023-02-03T07:04:56.547Z,9.33
2023-02-03T07:07:23.963Z,9.23
2023-02-03T07:09:51.404Z,9.30
2023-02-03T07:12:18.868Z,9.26
2023-02-03T07:14:46.267Z,9.31
2023-02-03T07:17:13.768Z,9.38
2023-02-03T07:19:41.307Z,9.30
2023-02-03T07:22:08.773Z,9.29
2023-02-03T07:24:36.154Z,9.15
2023-02-03T07:27:04.657Z,9.11
2023-02-03T07:29:32.146Z,9.19
2023-02-03T07:31:59.662Z,9.15
2023-02-03T07:34:27.212Z,9.15
2023-02-03T07:36:54.659Z,9.13
2023-02-03T07:39:22.051Z,9.10
2023-02-03T07:41:49.430Z,9.08
2023-02-03T07:44:16.852Z,9.05
2023-02-03T07:46:45.082Z,9.05
2023-02-03T07:49:13.104Z,9.06
2023-02-03T07:51:40.506Z,9.10
2023-02-03T07:54:07.983Z,9.10
2023-02-03T07:56:36.487Z,9.17
2023-02-03T07:59:03.952Z,9.19
2023-02-03T08:01:31.429Z,9.29
2023-02-03T08:03:58.939Z,9.25
2023-02-03T08:06:26.414Z,9.28
2023-02-03T08:08:54.087Z,9.29
2023-02-03T08:11:21.512Z,9.20
2023-02-03T08:13:48.934Z,9.28
2023-02-03T08:16:16.399Z,9.33
2023-02-03T08:18:43.948Z,9.34
2023-02-03T08:21:12.016Z,9.29
2023-02-03T08:23:39.471Z,9.19
2023-02-03T08:26:07.046Z,9.35
2023-02-03T08:28:34.616Z,9.34
2023-02-03T08:31:02.117Z,9.34
2023-02-03T08:33:29.833Z,9.45
2023-02-03T08:35:58.795Z,9.40
2023-02-03T08:38:26.206Z,9.48
2023-02-03T08:40:53.738Z,9.50
2023-02-03T08:43:21.303Z,9.58
2023-02-03T08:45:49.004Z,9.56
2023-02-03T08:48:16.516Z,9.62
2023-02-03T08:50:45.211Z,9.68
2023-02-03T08:53:12.686Z,9.77
2023-02-03T08:55:40.912Z,9.70
2023-02-03T08:58:08.379Z,9.73
2023-02-03T09:00:35.880Z,9.91
2023-02-03T09:03:04.171Z,9.94
2023-02-03T09:05:32.424Z,9.90
2023-02-03T09:07:59.999Z,9.89
2023-02-03T09:10:27.868Z,9.93
2023-02-03T09:12:55.553Z,10.00
2023-02-03T09:15:23.014Z,9.90
2023-02-03T09:17:50.509Z,9.93
2023-02-03T09:20:18.093Z,9.89
2023-02-03T09:22:45.562Z,10.07
2023-02-03T09:25:13.917Z,10.08
2023-02-03T09:27:41.398Z,10.08
2023-02-03T09:30:09.198Z,10.10
2023-02-03T09:32:36.651Z,10.28
2023-02-03T09:35:04.039Z,10.25
2023-02-03T09:37:31.544Z,10.30
2023-02-03T09:39:59.524Z,10.30
2023-02-03T09:42:59.824Z,10.10
2023-02-03T09:45:28.291Z,10.19
2023-02-03T09:47:58.050Z,10.14
2023-02-03T09:50:27.632Z,10.06
2023-02-03T09:52:56.351Z,10.17
2023-02-03T09:55:44.766Z,10.13
2023-02-03T09:58:13.964Z,10.17
2023-02-03T10:00:48.282Z,10.05
2023-02-03T10:03:15.733Z,10.06
2023-02-03T10:05:43.378Z,10.17
2023-02-03T10:08:10.843Z,10.19
2023-02-03T10:11:09.830Z,10.16
2023-02-03T10:13:56.172Z,9.84
2023-02-03T10:16:44.262Z,10.15
2023-02-03T10:19:20.044Z,10.10
2023-02-03T10:21:55.476Z,10.19
2023-02-03T10:24:41.068Z,10.08
2023-02-03T10:27:18.041Z,10.01
2023-02-03T10:29:45.503Z,10.02
2023-02-03T10:32:13.855Z,10.09
2023-02-03T10:34:44.664Z,10.09
2023-02-03T10:37:18.694Z,10.05
2023-02-03T10:39:48.355Z,10.07
2023-02-03T10:42:16.657Z,10.13
2023-02-03T10:44:47.694Z,10.17
2023-02-03T10:47:15.080Z,10.19
2023-02-03T10:49:43.532Z,10.15
2023-02-03T10:52:25.826Z,10.26
2023-02-03T10:54:53.310Z,10.24
2023-02-03T10:57:20.802Z,10.31
2023-02-03T10:59:49.209Z,10.33
2023-02-03T11:02:28.849Z,10.40
2023-02-03T11:05:09.787Z,10.48
2023-02-03T11:07:37.501Z,10.47
2023-02-03T11:10:05.145Z,10.50
2023-02-03T11:12:32.675Z,10.60
2023-02-03T11:15:06.160Z,10.62
2023-02-03T11:17:36.918Z,10.55
2023-02-03T11:20:13.950Z,10.62
2023-02-03T11:22:43.299Z,10.45
2023-02-03T11:25:21.711Z,10.60
2023-02-03T11:27:49.439Z,10.46
2023-02-03T11:30:17.258Z,10.46
2023-02-03T11:32:45.879Z,10.52
2023-02-03T11:35:18.681Z,10.54
2023-02-03T11:37:47.745Z,10.62
2023-02-03T11:40:19.048Z,10.53
2023-02-03T11:42:59.737Z,10.53
2023-02-03T11:45:30.711Z,10.42
2023-02-03T11:48:01.898Z,10.43
2023-02-03T11:50:36.310Z,10.55
2023-02-03T11:53:23.958Z,10.27
2023-02-03T11:56:06.897Z,10.41
2023-02-03T11:58:35.285Z,10.38
2023-02-03T12:01:15.071Z,10.40
2023-02-03T12:03:56.982Z,10.28
2023-02-03T12:06:24.473Z,10.37
2023-02-03T12:09:10.926Z,10.39
2023-02-03T12:11:38.452Z,10.36
2023-02-03T12:14:15.565Z,10.41
2023-02-03T12:16:43.177Z,10.37
2023-02-03T12:19:22.972Z,10.40
2023-02-03T12:21:59.399Z,10.47
2023-02-03T12:24:29.963Z,10.36
2023-02-03T12:27:16.601Z,10.35
2023-02-03T12:29:46.240Z,10.25
2023-02-03T12:32:29.726Z,10.16
2023-02-03T12:35:00.884Z,10.02
2023-02-03T12:37:40.327Z,10.04
2023-02-03T12:40:15.468Z,9.94
2023-02-03T12:42:45.077Z,9.62
2023-02-03T12:45:14.869Z,9.62
2023-02-03T12:47:45.397Z,9.47
2023-02-03T12:50:18.973Z,9.50
2023-02-03T12:52:51.542Z,9.30
2023-02-03T12:55:26.685Z,9.35
2023-02-03T12:58:03.475Z,9.22
2023-02-03T13:00:31.331Z,9.20
2023-02-03T13:02:59.019Z,9.12
2023-02-03T13:05:34.120Z,8.97
2023-02-03T13:08:07.527Z,8.95
2023-02-03T13:10:40.847Z,8.94
2023-02-03T13:13:12.215Z,8.94
2023-02-03T13:15:47.362Z,8.83
2023-02-03T13:18:47.492Z,8.88
2023-02-03T13:21:15.039Z,8.90
2023-02-03T13:23:44.660Z,8.99
2023-02-03T13:26:27.196Z,8.96
2023-02-03T13:29:03.045Z,9.09
2023-02-03T13:31:46.782Z,9.16
2023-02-03T13:34:23.281Z,9.26
2023-02-03T13:36:53.594Z,9.22
2023-02-03T13:39:24.428Z,9.25
2023-02-03T13:41:51.908Z,9.31
2023-02-03T13:44:21.244Z,9.35
2023-02-03T13:46:50.745Z,9.35
2023-02-03T13:49:23.831Z,9.40
2023-02-03T13:51:51.565Z,9.40
2023-02-03T13:54:37.065Z,9.41
2023-02-03T13:57:07.020Z,9.27
2023-02-03T13:59:45.115Z,9.38
2023-02-03T14:02:25.145Z,9.35
2023-02-03T14:04:54.502Z,9.33
2023-02-03T14:07:26.137Z,9.43
2023-02-03T14:10:09.178Z,9.46
2023-02-03T14:12:37.638Z,9.43
2023-02-03T14:15:18.655Z,9.32
2023-02-03T14:17:46.460Z,9.45
2023-02-03T14:20:26.611Z,9.40
2023-02-03T14:22:55.820Z,9.37
2023-02-03T14:25:24.592Z,9.40
2023-02-03T14:28:00.853Z,9.34
2023-02-03T14:30:28.505Z,9.47
2023-02-03T14:33:00.908Z,9.50
2023-02-03T14:35:33.978Z,9.48
2023-02-03T14:38:04.645Z,9.41
2023-02-03T14:40:38.483Z,9.42
2023-02-03T14:43:24.880Z,9.41
2023-02-03T14:46:00.928Z,9.54
2023-02-03T14:48:42.581Z,9.48
2023-02-03T14:51:16.174Z,9.35
2023-02-03T14:53:43.773Z,9.37
2023-02-03T14:56:20.674Z,9.35
2023-02-03T14:58:54.310Z,9.22
2023-02-03T15:01:29.048Z,9.24
2023-02-03T15:04:14.966Z,9.26
2023-02-03T15:06:46.759Z,9.23
2023-02-03T15:09:36.064Z,9.24
2023-02-03T15:12:03.759Z,9.20
2023-02-03T15:14:32.347Z,9.26
2023-02-03T15:17:04.787Z,9.12
2023-02-03T15:19:36.889Z,9.19
2023-02-03T15:22:19.007Z,9.12
2023-02-03T15:24:46.695Z,9.19
2023-02-03T15:27:24.212Z,9.09
2023-02-03T15:29:51.774Z,9.14
2023-02-03T15:32:34.527Z,9.04
2023-02-03T15:35:04.367Z,9.00
2023-02-03T15:37:41.082Z,9.02
2023-02-03T15:40:19.898Z,9.09
2023-02-03T15:42:57.868Z,9.14
2023-02-03T15:45:46.063Z,9.11
2023-02-03T15:48:20.858Z,9.04
2023-02-03T15:50:51.670Z,9.06
2023-02-03T15:53:46.742Z,9.07
2023-02-03T15:56:23.110Z,9.01
2023-02-03T15:58:51.116Z,8.96
2023-02-03T16:01:23.250Z,8.99
2023-02-03T16:03:53.624Z,8.98
2023-02-03T16:06:27.822Z,8.94
2023-02-03T16:08:56.367Z,8.80
2023-02-03T16:11:29.902Z,8.88
2023-02-03T16:13:59.780Z,8.91
2023-02-03T16:16:58.790Z,8.96
2023-02-03T16:19:34.271Z,8.87
2023-02-03T16:22:01.939Z,8.86
2023-02-03T16:24:46.168Z,8.77
2023-02-03T16:27:23.530Z,8.81
2023-02-03T16:30:08.417Z,8.75
2023-02-03T16:32:53.707Z,8.63
2023-02-03T16:35:38.625Z,8.64
2023-02-03T16:38:30.571Z,8.62
2023-02-03T16:41:15.615Z,8.62
2023-02-03T16:44:00.824Z,8.61
2023-02-03T16:46:45.611Z,8.58
2023-02-03T16:49:30.390Z,8.67
2023-02-03T16:51:57.983Z,8.67
2023-02-03T16:54:27.877Z,8.65
2023-02-03T16:56:58.448Z,8.53
2023-02-03T16:59:26.285Z,8.57
2023-02-03T17:01:53.930Z,8.56
2023-02-03T17:04:21.544Z,8.69
2023-02-03T17:06:51.213Z,8.60
2023-02-03T17:09:22.081Z,8.56
2023-02-03T17:11:50.166Z,8.55
2023-02-03T17:14:18.033Z,8.53
2023-02-03T17:16:45.572Z,8.60
2023-02-03T17:19:13.829Z,8.50
2023-02-03T17:21:41.448Z,8.51
2023-02-03T17:24:09.030Z,8.48
2023-02-03T17:26:36.708Z,8.40
2023-02-03T17:29:04.370Z,8.46
2023-02-03T17:31:32.123Z,8.45
2023-02-03T17:34:00.620Z,8.35
2023-02-03T17:36:28.312Z,8.40
2023-02-03T17:55:28.684Z,8.30
2023-02-03T17:57:56.381Z,8.32
2023-02-03T18:00:23.973Z,8.35
2023-02-03T18:02:52.211Z,8.37
2023-02-03T18:05:19.855Z,8.40
2023-02-03T18:10:15.885Z,8.32
2023-02-03T18:12:43.421Z,8.37
2023-02-03T18:15:11.163Z,8.44
2023-02-03T18:17:38.710Z,8.43
2023-02-03T18:20:06.489Z,8.45
2023-02-03T18:22:34.776Z,8.45
2023-02-03T18:25:02.441Z,8.50
2023-02-03T18:27:30.044Z,8.53
2023-02-03T18:29:57.748Z,8.58
2023-02-03T18:32:25.318Z,8.52
2023-02-03T18:34:52.910Z,8.46
2023-02-03T18:37:20.425Z,8.49
2023-02-03T18:39:48.024Z,8.53
2023-02-03T18:42:15.677Z,8.49
2023-02-03T18:44:44.185Z,8.44
2023-02-03T18:47:11.811Z,8.43
2023-02-03T18:49:39.650Z,8.46
2023-02-03T18:52:07.307Z,8.49
2023-02-03T18:54:34.838Z,8.40
2023-02-03T18:57:03.060Z,8.41
2023-02-03T18:59:30.755Z,8.48
2023-02-03T19:01:58.306Z,8.51
2023-02-03T19:04:25.828Z,8.54
2023-02-03T19:06:53.393Z,8.40
2023-02-03T19:09:22.415Z,8.40
2023-02-03T19:11:50.156Z,8.51
2023-02-03T19:14:17.899Z,8.54
2023-02-03T19:16:45.469Z,8.61
2023-02-03T19:19:13.980Z,8.52
2023-02-03T19:21:41.510Z,8.39
2023-02-03T19:24:09.288Z,8.44
2023-02-03T19:26:36.863Z,8.36
2023-02-03T19:29:04.382Z,8.28
2023-02-03T19:31:32.072Z,8.29
2023-02-03T19:34:00.256Z,8.30
2023-02-03T19:36:30.602Z,8.32
2023-02-03T19:38:58.602Z,8.38
2023-02-03T19:41:27.641Z,8.40
2023-02-03T19:43:55.253Z,8.33
2023-02-03T19:46:23.095Z,8.44
2023-02-03T19:48:50.916Z,8.34
2023-02-03T19:51:18.497Z,8.46
2023-02-03T19:53:46.048Z,8.35
2023-02-03T19:56:13.695Z,8.49
2023-02-03T19:58:41.247Z,8.44
2023-02-03T20:01:10.226Z,8.40
2023-02-03T20:03:37.739Z,8.41
2023-02-03T20:06:05.429Z,8.41
2023-02-03T20:08:33.060Z,8.44
2023-02-03T20:11:01.082Z,8.32
2023-02-03T20:13:28.678Z,8.35
2023-02-03T20:15:56.655Z,8.35
2023-02-03T20:18:24.263Z,8.37
2023-02-03T20:20:52.799Z,8.34
2023-02-03T20:23:20.526Z,8.36
2023-02-03T20:25:52.998Z,8.32
2023-02-03T20:28:21.062Z,8.29
2023-02-03T20:30:51.551Z,8.26
2023-02-03T20:33:19.169Z,8.31
2023-02-03T20:35:46.799Z,8.30
2023-02-03T20:38:15.624Z,8.31
2023-02-03T20:40:43.744Z,8.30
2023-02-03T20:43:17.095Z,8.33
2023-02-03T20:45:45.119Z,8.28
2023-02-03T20:48:13.666Z,8.34
2023-02-03T20:50:46.765Z,8.33
2023-02-03T20:53:19.918Z,8.38
2023-02-03T20:55:47.938Z,8.34
2023-02-03T20:58:17.853Z,8.34
2023-02-03T21:00:45.858Z,8.30
2023-02-03T21:03:32.045Z,8.39
2023-02-03T21:05:59.649Z,8.40
2023-02-03T21:08:27.811Z,8.39
2023-02-03T21:10:55.737Z,8.50
2023-02-03T21:13:26.509Z,8.19
2023-02-03T21:15:56.060Z,8.32
2023-02-03T21:18:28.732Z,8.31
2023-02-03T21:20:56.344Z,8.22
2023-02-03T21:23:25.954Z,8.22
2023-02-03T21:25:53.539Z,8.17
2023-02-03T21:28:24.997Z,8.22
2023-02-03T21:30:52.562Z,8.26
2023-02-03T21:33:31.087Z,8.14
2023-02-03T21:35:58.681Z,8.13
2023-02-03T21:38:33.144Z,8.17
2023-02-03T21:41:01.566Z,8.15
2023-02-03T21:43:30.290Z,8.14
2023-02-03T21:45:57.919Z,8.14
2023-02-03T21:48:33.381Z,8.12
2023-02-03T21:51:02.324Z,8.12
2023-02-03T21:53:35.239Z,8.13
2023-02-03T21:56:18.052Z,8.16
2023-02-03T21:58:47.450Z,8.20
2023-02-03T22:01:17.513Z,8.19
2023-02-03T22:03:47.623Z,8.32
2023-02-03T22:06:15.149Z,8.16
2023-02-03T22:08:47.982Z,8.09
2023-02-03T22:11:16.252Z,8.13
2023-02-03T22:13:43.955Z,8.11
2023-02-03T22:16:13.832Z,7.95
2023-02-03T22:18:42.295Z,7.92
2023-02-03T22:21:09.823Z,7.88
2023-02-03T22:23:37.369Z,7.90
2023-02-03T22:26:05.006Z,7.95
2023-02-03T22:28:32.570Z,8.02
2023-02-03T22:31:00.379Z,8.01
2023-02-03T22:33:27.983Z,7.95
2023-02-03T22:35:55.516Z,7.94
2023-02-03T22:38:23.028Z,7.96
2023-02-03T22:40:50.661Z,7.91
2023-02-03T22:43:18.261Z,7.91
2023-02-03T22:45:45.781Z,7.90
2023-02-03T22:48:13.354Z,7.92
2023-02-03T22:50:41.192Z,7.98
2023-02-03T22:53:09.403Z,7.90
2023-02-03T22:55:37.807Z,7.88
2023-02-03T22:58:06.154Z,7.78
2023-02-03T23:00:34.401Z,7.81
2023-02-03T23:03:02.083Z,7.72
2023-02-03T23:05:29.618Z,7.75
2023-02-03T23:07:57.183Z,7.72
2023-02-03T23:10:25.916Z,7.80
2023-02-03T23:12:53.866Z,7.83
2023-02-03T23:15:21.555Z,7.94
2023-02-03T23:17:49.059Z,7.93
2023-02-03T23:20:17.227Z,7.82
2023-02-03T23:22:45.602Z,7.81
2023-02-03T23:25:13.475Z,7.72
2023-02-03T23:27:40.997Z,7.79
2023-02-03T23:30:08.798Z,7.83
2023-02-03T23:32:36.415Z,7.81
2023-02-03T23:35:21.895Z,7.75
2023-02-03T23:37:49.557Z,7.73
2023-02-03T23:40:17.332Z,7.71
2023-02-03T23:42:44.853Z,7.70
2023-02-03T23:45:12.775Z,7.72
2023-02-03T23:47:41.282Z,7.65
2023-02-03T23:50:10.220Z,7.51
2023-02-03T23:52:38.285Z,7.43
2023-02-03T23:55:06.909Z,7.42
2023-02-03T23:57:34.657Z,7.20
